createdAt,value
2022-08-29T00:00:52.109Z,11.70
2022-08-29T00:03:21.096Z,11.70
2022-08-29T00:05:50.645Z,10.80
2022-08-29T00:08:20.121Z,10.50
2022-08-29T00:10:49.729Z,11.20
2022-08-29T00:13:18.720Z,8.90
2022-08-29T00:15:48.225Z,10.00
2022-08-29T00:18:19.573Z,10.70
2022-08-29T00:20:50.444Z,11.80
2022-08-29T00:23:20.969Z,11.00
2022-08-29T00:25:51.252Z,12.50
2022-08-29T00:28:20.654Z,10.50
2022-08-29T00:30:50.480Z,9.10
2022-08-29T00:33:22.448Z,9.70
2022-08-29T00:35:52.278Z,8.80
2022-08-29T00:38:26.432Z,12.70
2022-08-29T00:40:59.615Z,8.40
2022-08-29T00:43:34.389Z,10.50
2022-08-29T00:46:43.346Z,8.00
2022-08-29T00:49:24.991Z,10.70
2022-08-29T00:51:57.191Z,9.80
2022-08-29T00:54:28.689Z,10.40
2022-08-29T00:56:59.595Z,10.30
2022-08-29T00:59:37.334Z,11.80
2022-08-29T01:02:09.053Z,8.40
2022-08-29T01:04:40.530Z,11.40
2022-08-29T01:07:12.468Z,11.80
2022-08-29T01:09:47.947Z,9.50
2022-08-29T01:12:17.729Z,10.00
2022-08-29T01:15:01.106Z,12.50
2022-08-29T01:17:38.089Z,9.90
2022-08-29T01:20:34.059Z,9.90
2022-08-29T01:23:27.287Z,11.40
2022-08-29T01:25:57.603Z,9.50
2022-08-29T01:28:34.917Z,10.90
2022-08-29T01:31:55.751Z,11.90
2022-08-29T01:34:11.804Z,10.70
2022-08-29T01:36:56.194Z,8.10
2022-08-29T01:39:30.222Z,10.10
2022-08-29T01:42:04.265Z,13.80
2022-08-29T01:44:34.131Z,23.20
2022-08-29T01:47:03.655Z,14.10
2022-08-29T01:49:35.789Z,14.60
2022-08-29T01:52:12.629Z,11.70
2022-08-29T01:54:45.405Z,12.10
2022-08-29T01:57:16.183Z,10.90
2022-08-29T01:59:47.013Z,8.80
2022-08-29T02:02:24.025Z,8.70
2022-08-29T02:04:55.460Z,11.90
2022-08-29T02:07:27.003Z,10.70
2022-08-29T02:09:57.828Z,10.10
2022-08-29T02:12:28.523Z,12.50
2022-08-29T02:14:59.574Z,11.40
2022-08-29T02:17:30.462Z,10.70
2022-08-29T02:20:01.159Z,12.20
2022-08-29T02:22:31.934Z,13.20
2022-08-29T02:25:25.349Z,8.80
2022-08-29T02:27:56.330Z,8.30
2022-08-29T02:30:27.012Z,12.80
2022-08-29T02:32:58.046Z,12.60
2022-08-29T02:35:28.693Z,11.90
2022-08-29T02:38:01.178Z,11.10
2022-08-29T02:40:32.509Z,11.00
2022-08-29T02:43:03.381Z,10.90
2022-08-29T02:45:36.600Z,7.90
2022-08-29T02:48:07.555Z,8.40
2022-08-29T02:50:40.649Z,9.30
2022-08-29T02:53:12.038Z,10.80
2022-08-29T02:55:43.564Z,15.00
2022-08-29T02:58:15.169Z,13.00
2022-08-29T03:00:45.811Z,13.30
2022-08-29T03:03:15.584Z,9.50
2022-08-29T03:05:46.412Z,9.30
2022-08-29T03:08:16.997Z,12.10
2022-08-29T03:10:47.208Z,9.30
2022-08-29T03:13:19.298Z,9.70
2022-08-29T03:15:49.422Z,10.80
2022-08-29T03:18:20.691Z,10.10
2022-08-29T03:20:52.120Z,10.40
2022-08-29T03:23:22.449Z,9.90
2022-08-29T03:28:21.037Z,10.40
2022-08-29T03:30:51.584Z,10.30
2022-08-29T03:33:21.963Z,10.90
2022-08-29T03:35:52.411Z,9.60
2022-08-29T03:38:23.266Z,10.50
2022-08-29T03:40:52.662Z,11.00
2022-08-29T03:43:27.091Z,9.80
2022-08-29T03:45:56.889Z,10.10
2022-08-29T03:50:56.701Z,10.60
2022-08-29T03:53:27.871Z,9.60
2022-08-29T03:55:57.961Z,11.20
2022-08-29T03:58:27.324Z,10.30
2022-08-29T04:00:56.558Z,11.40
2022-08-29T04:03:30.885Z,8.60
2022-08-29T04:06:01.829Z,9.20
2022-08-29T04:08:31.789Z,9.60
2022-08-29T04:11:01.259Z,12.90
2022-08-29T04:13:30.927Z,12.50
2022-08-29T04:16:00.192Z,11.10
2022-08-29T04:18:29.892Z,10.70
2022-08-29T04:21:03.284Z,11.30
2022-08-29T04:23:33.698Z,9.00
2022-08-29T04:26:26.348Z,9.30
2022-08-29T04:28:53.472Z,9.30
2022-08-29T04:31:23.350Z,8.50
2022-08-29T04:33:53.475Z,8.80
2022-08-29T04:36:22.423Z,9.30
2022-08-29T04:38:51.615Z,9.00
2022-08-29T04:41:20.517Z,11.20
2022-08-29T04:43:49.983Z,10.10
2022-08-29T04:46:23.951Z,11.00
2022-08-29T04:48:54.773Z,8.00
2022-08-29T04:53:54.088Z,10.60
2022-08-29T04:58:52.572Z,10.10
2022-08-29T05:01:24.581Z,11.00
2022-08-29T05:03:54.760Z,10.60
2022-08-29T05:06:24.678Z,7.80
2022-08-29T05:08:58.836Z,8.40
2022-08-29T05:11:31.548Z,11.20
2022-08-29T05:14:02.950Z,13.30
2022-08-29T05:16:35.286Z,11.20
2022-08-29T05:19:06.763Z,8.50
2022-08-29T05:21:38.489Z,9.20
2022-08-29T05:24:11.020Z,7.30
2022-08-29T05:26:43.697Z,8.80
2022-08-29T05:29:14.075Z,9.90
2022-08-29T05:31:45.482Z,8.70
2022-08-29T05:34:34.382Z,6.70
2022-08-29T05:37:11.056Z,8.50
2022-08-29T05:39:40.152Z,8.20
2022-08-29T05:42:11.103Z,9.60
2022-08-29T05:44:40.904Z,8.80
2022-08-29T05:47:12.086Z,10.00
2022-08-29T05:49:43.205Z,12.70
2022-08-29T05:52:14.132Z,8.10
2022-08-29T05:54:44.754Z,6.80
2022-08-29T05:57:19.215Z,7.80
2022-08-29T05:59:54.112Z,6.30
2022-08-29T06:02:23.435Z,6.00
2022-08-29T06:04:52.806Z,5.90
2022-08-29T06:07:21.811Z,7.60
2022-08-29T06:09:53.372Z,7.70
2022-08-29T06:12:24.269Z,6.90
2022-08-29T06:14:54.206Z,6.80
2022-08-29T06:17:23.199Z,7.80
2022-08-29T06:19:52.903Z,6.10
2022-08-29T06:22:22.819Z,6.00
2022-08-29T06:24:57.695Z,5.80
2022-08-29T06:27:27.667Z,6.90
2022-08-29T06:30:00.120Z,6.60
2022-08-29T06:32:30.569Z,5.80
2022-08-29T06:35:00.181Z,10.10
2022-08-29T06:37:28.964Z,6.50
2022-08-29T06:39:57.781Z,8.30
2022-08-29T06:42:28.719Z,6.30
2022-08-29T06:44:58.295Z,6.30
2022-08-29T06:47:27.193Z,7.90
2022-08-29T06:49:56.076Z,5.90
2022-08-29T06:52:24.971Z,5.90
2022-08-29T06:57:22.648Z,9.30
2022-08-29T06:59:51.334Z,7.80
2022-08-29T07:02:20.286Z,16.70
2022-08-29T07:07:17.700Z,7.20
2022-08-29T07:09:47.933Z,8.00
2022-08-29T07:12:16.921Z,7.40
2022-08-29T07:17:25.787Z,7.40
2022-08-29T07:19:55.253Z,9.90
2022-08-29T07:22:23.837Z,8.40
2022-08-29T07:24:53.806Z,6.50
2022-08-29T07:27:23.151Z,6.90
2022-08-29T07:29:51.835Z,11.50
2022-08-29T07:34:56.208Z,8.10
2022-08-29T07:37:25.270Z,6.00
2022-08-29T07:39:54.641Z,6.60
2022-08-29T07:42:23.871Z,6.40
2022-08-29T07:44:52.620Z,7.10
2022-08-29T07:47:21.754Z,8.90
2022-08-29T07:49:50.744Z,7.70
2022-08-29T07:52:19.740Z,7.50
2022-08-29T07:57:18.234Z,5.60
2022-08-29T07:59:47.227Z,8.30
2022-08-29T08:07:17.315Z,8.30
2022-08-29T08:09:46.477Z,6.60
2022-08-29T08:12:17.003Z,6.00
2022-08-29T08:14:45.591Z,6.10
2022-08-29T08:17:14.483Z,7.10
2022-08-29T08:19:46.443Z,9.10
2022-08-29T08:22:15.440Z,6.30
2022-08-29T08:24:45.421Z,7.20
2022-08-29T08:27:14.132Z,5.30
2022-08-29T08:29:44.874Z,6.40
2022-08-29T08:32:13.654Z,4.60
2022-08-29T08:34:43.367Z,4.80
2022-08-29T08:37:12.853Z,5.50
2022-08-29T08:39:48.426Z,6.70
2022-08-29T08:42:43.014Z,10.20
2022-08-29T08:45:19.171Z,5.30
2022-08-29T08:47:53.396Z,8.10
2022-08-29T08:50:52.453Z,8.20
2022-08-29T08:53:42.368Z,5.20
2022-08-29T08:56:19.963Z,6.40
2022-08-29T08:59:03.393Z,7.60
2022-08-29T09:01:40.177Z,8.80
2022-08-29T09:04:27.279Z,7.00
2022-08-29T09:07:47.070Z,6.30
2022-08-29T09:10:32.818Z,5.30
2022-08-29T09:13:22.233Z,11.70
2022-08-29T09:15:56.612Z,5.40
2022-08-29T09:18:33.217Z,5.00
2022-08-29T09:21:40.144Z,5.50
2022-08-29T09:24:15.038Z,6.80
2022-08-29T09:26:43.992Z,7.40
2022-08-29T09:29:14.347Z,6.00
2022-08-29T09:31:43.740Z,7.00
2022-08-29T09:34:45.185Z,8.30
2022-08-29T09:37:28.736Z,4.40
2022-08-29T09:40:16.574Z,5.10
2022-08-29T09:43:01.953Z,4.30
2022-08-29T09:45:30.802Z,6.90
2022-08-29T09:48:16.626Z,6.70
2022-08-29T09:50:45.824Z,8.90
2022-08-29T09:53:24.759Z,6.60
2022-08-29T09:55:54.467Z,5.70
2022-08-29T09:58:24.593Z,6.80
2022-08-29T10:01:12.160Z,5.90
2022-08-29T10:04:03.028Z,7.80
2022-08-29T10:06:44.329Z,6.50
2022-08-29T10:09:29.095Z,6.70
2022-08-29T10:12:14.739Z,7.00
2022-08-29T10:14:53.932Z,9.00
2022-08-29T10:18:12.737Z,6.50
2022-08-29T10:20:47.469Z,8.50
2022-08-29T10:23:22.525Z,8.20
2022-08-29T10:25:51.895Z,6.10
2022-08-29T10:28:51.578Z,5.00
2022-08-29T10:31:36.523Z,7.30
2022-08-29T10:34:49.398Z,6.60
2022-08-29T10:37:55.460Z,5.60
2022-08-29T10:40:43.469Z,6.40
2022-08-29T10:43:30.412Z,6.00
2022-08-29T10:46:02.776Z,5.70
2022-08-29T10:48:39.978Z,7.30
2022-08-29T10:51:17.979Z,6.10
2022-08-29T10:53:57.001Z,7.10
2022-08-29T10:56:44.731Z,5.80
2022-08-29T11:02:13.332Z,8.10
2022-08-29T11:04:51.236Z,5.80
2022-08-29T11:07:40.710Z,5.40
2022-08-29T11:10:24.969Z,6.50
2022-08-29T11:13:02.451Z,5.20
2022-08-29T11:15:53.157Z,5.40
2022-08-29T11:18:47.850Z,5.10
2022-08-29T11:21:22.577Z,5.40
2022-08-29T11:23:52.402Z,7.20
2022-08-29T11:26:42.165Z,7.40
2022-08-29T11:29:39.936Z,7.20
2022-08-29T11:32:24.400Z,8.80
2022-08-29T11:35:24.064Z,8.90
2022-08-29T11:37:55.663Z,5.70
2022-08-29T11:41:25.732Z,5.10
2022-08-29T11:43:37.616Z,5.80
2022-08-29T11:46:09.845Z,6.60
2022-08-29T11:48:48.364Z,8.50
2022-08-29T11:51:37.647Z,6.30
2022-08-29T11:54:24.952Z,6.10
2022-08-29T11:57:02.851Z,5.70
2022-08-29T12:02:32.787Z,5.70
2022-08-29T12:05:03.208Z,5.70
2022-08-29T12:08:14.451Z,7.90
2022-08-29T12:10:57.531Z,5.80
2022-08-29T12:13:44.430Z,6.70
2022-08-29T12:16:18.389Z,6.00
2022-08-29T12:18:53.172Z,6.90
2022-08-29T12:21:37.314Z,8.10
2022-08-29T12:24:26.273Z,9.20
2022-08-29T12:26:56.190Z,7.40
2022-08-29T12:29:27.643Z,6.40
2022-08-29T12:32:22.540Z,7.40
2022-08-29T12:35:11.300Z,8.20
2022-08-29T12:40:39.735Z,9.30
2022-08-29T12:43:23.032Z,8.40
2022-08-29T12:45:52.739Z,8.70
2022-08-29T12:48:30.124Z,6.70
2022-08-29T12:50:59.140Z,9.50
2022-08-29T12:53:33.506Z,7.50
2022-08-29T12:56:20.345Z,7.60
2022-08-29T12:58:56.510Z,9.40
2022-08-29T13:01:28.292Z,8.10
2022-08-29T13:04:04.448Z,7.30
2022-08-29T13:06:34.648Z,8.10
2022-08-29T13:09:06.412Z,7.20
2022-08-29T13:11:36.625Z,6.80
2022-08-29T13:14:11.628Z,7.90
2022-08-29T13:16:41.147Z,9.70
2022-08-29T13:19:21.109Z,10.60
2022-08-29T13:21:49.800Z,9.20
2022-08-29T13:24:21.265Z,7.50
2022-08-29T13:27:02.812Z,9.40
2022-08-29T13:32:24.261Z,8.00
2022-08-29T13:35:15.098Z,7.90
2022-08-29T13:37:47.142Z,10.30
2022-08-29T13:40:37.304Z,13.30
2022-08-29T13:43:06.913Z,10.00
2022-08-29T13:45:36.648Z,11.20
2022-08-29T13:48:20.620Z,13.40
2022-08-29T13:50:49.317Z,10.20
2022-08-29T13:53:18.131Z,10.70
2022-08-29T13:55:46.963Z,13.40
2022-08-29T13:58:18.700Z,12.30
2022-08-29T14:00:47.710Z,11.80
2022-08-29T14:03:18.581Z,10.50
2022-08-29T14:05:47.550Z,12.80
2022-08-29T14:08:16.596Z,10.70
2022-08-29T14:10:46.032Z,10.60
2022-08-29T14:13:14.926Z,9.10
2022-08-29T14:15:44.068Z,11.80
2022-08-29T14:18:12.806Z,10.40
2022-08-29T14:20:41.593Z,15.80
2022-08-29T14:23:10.277Z,11.40
2022-08-29T14:25:38.862Z,10.30
2022-08-29T14:28:07.757Z,11.80
2022-08-29T14:30:37.359Z,11.30
2022-08-29T14:33:06.247Z,10.40
2022-08-29T14:35:42.368Z,9.60
2022-08-29T14:38:12.016Z,9.30
2022-08-29T14:40:41.259Z,10.20
2022-08-29T14:43:12.361Z,7.80
2022-08-29T14:48:09.736Z,7.90
2022-08-29T14:50:38.622Z,9.30
2022-08-29T14:53:07.735Z,11.40
2022-08-29T14:55:37.423Z,9.80
2022-08-29T14:58:06.006Z,9.30
2022-08-29T15:00:34.797Z,9.20
2022-08-29T15:03:04.213Z,12.60
2022-08-29T15:05:32.884Z,10.20
2022-08-29T15:08:06.541Z,10.90
2022-08-29T15:10:35.782Z,11.20
2022-08-29T15:13:05.705Z,10.40
2022-08-29T15:15:35.058Z,8.90
2022-08-29T15:18:06.013Z,9.70
2022-08-29T15:20:37.195Z,9.40
2022-08-29T15:23:07.102Z,9.80
2022-08-29T15:25:35.994Z,10.50
2022-08-29T15:28:05.912Z,8.90
2022-08-29T15:30:35.452Z,9.70
2022-08-29T15:33:04.606Z,11.30
2022-08-29T15:38:02.389Z,11.30
2022-08-29T15:40:31.263Z,11.60
2022-08-29T15:43:00.264Z,11.10
2022-08-29T15:45:29.670Z,14.60
2022-08-29T15:48:00.810Z,12.70
2022-08-29T15:50:30.446Z,11.30
2022-08-29T15:52:59.517Z,14.10
2022-08-29T15:55:28.305Z,14.00
2022-08-29T15:57:57.296Z,13.30
2022-08-29T16:00:30.216Z,14.60
2022-08-29T16:03:03.372Z,15.30
2022-08-29T16:05:33.633Z,14.10
2022-08-29T16:08:03.116Z,13.50
2022-08-29T16:10:34.942Z,14.80
2022-08-29T16:13:04.463Z,15.10
2022-08-29T16:15:34.322Z,14.70
2022-08-29T16:18:04.131Z,14.20
2022-08-29T16:20:33.423Z,15.80
2022-08-29T16:25:32.717Z,18.00
2022-08-29T16:28:03.498Z,16.90
2022-08-29T16:30:35.362Z,16.90
2022-08-29T16:33:06.751Z,16.30
2022-08-29T16:35:36.353Z,18.00
2022-08-29T16:38:04.940Z,19.00
2022-08-29T16:40:33.907Z,16.40
2022-08-29T16:43:04.814Z,16.30
2022-08-29T16:45:34.028Z,15.40
2022-08-29T16:48:04.757Z,18.00
2022-08-29T16:50:43.626Z,15.50
2022-08-29T16:53:12.310Z,17.40
2022-08-29T16:55:41.095Z,17.10
2022-08-29T16:58:28.178Z,15.60
2022-08-29T17:00:58.154Z,16.20
2022-08-29T17:03:27.429Z,13.80
2022-08-29T17:05:56.425Z,13.30
2022-08-29T17:08:25.624Z,12.70
2022-08-29T17:10:54.321Z,14.60
2022-08-29T17:13:23.607Z,16.90
2022-08-29T17:15:52.807Z,17.30
2022-08-29T17:18:21.491Z,17.40
2022-08-29T17:20:52.020Z,19.10
2022-08-29T17:23:20.807Z,19.10
2022-08-29T17:25:50.415Z,18.80
2022-08-29T17:28:20.675Z,14.90
2022-08-29T17:30:49.974Z,14.10
2022-08-29T17:33:20.158Z,14.30
2022-08-29T17:35:49.561Z,13.60
2022-08-29T17:38:18.574Z,14.40
2022-08-29T17:40:50.860Z,12.40
2022-08-29T17:43:19.916Z,12.50
2022-08-29T17:45:49.241Z,13.40
2022-08-29T17:48:19.956Z,15.30
2022-08-29T17:50:50.701Z,14.20
2022-08-29T17:53:20.779Z,14.30
2022-08-29T17:55:51.383Z,15.60
2022-08-29T17:58:21.787Z,16.00
2022-08-29T18:00:50.795Z,13.00
2022-08-29T18:03:19.943Z,15.20
2022-08-29T18:05:48.837Z,16.50
2022-08-29T18:08:17.820Z,15.80
2022-08-29T18:10:46.622Z,14.40
2022-08-29T18:13:19.743Z,15.90
2022-08-29T18:15:52.670Z,15.30
2022-08-29T18:18:22.013Z,16.90
2022-08-29T18:20:51.176Z,16.50
2022-08-29T18:23:20.090Z,18.20
2022-08-29T18:25:49.503Z,19.00
2022-08-29T18:28:18.279Z,18.50
2022-08-29T18:30:47.106Z,16.00
2022-08-29T18:33:16.168Z,17.40
2022-08-29T18:35:44.944Z,16.20
2022-08-29T18:38:15.137Z,17.00
2022-08-29T18:40:44.703Z,13.20
2022-08-29T18:43:15.364Z,15.90
2022-08-29T18:45:44.162Z,14.90
2022-08-29T18:48:13.107Z,16.20
2022-08-29T18:50:41.766Z,16.80
2022-08-29T18:53:22.072Z,15.50
2022-08-29T18:55:54.270Z,16.00
2022-08-29T18:58:27.279Z,15.90
2022-08-29T19:00:57.391Z,16.00
2022-08-29T19:03:26.394Z,15.40
2022-08-29T19:05:55.079Z,16.10
2022-08-29T19:08:27.860Z,16.20
2022-08-29T19:10:57.471Z,16.20
2022-08-29T19:13:26.988Z,16.70
2022-08-29T19:16:00.570Z,16.70
2022-08-29T19:21:06.732Z,16.60
2022-08-29T19:23:42.907Z,16.00
2022-08-29T19:26:17.540Z,17.20
2022-08-29T19:28:47.346Z,18.30
2022-08-29T19:33:47.582Z,18.30
2022-08-29T19:36:18.025Z,17.50
2022-08-29T19:38:47.330Z,17.40
2022-08-29T19:41:17.283Z,16.30
2022-08-29T19:43:46.016Z,18.20
2022-08-29T19:46:21.183Z,16.60
2022-08-29T19:48:52.362Z,17.90
2022-08-29T19:51:24.738Z,17.50
2022-08-29T19:53:59.491Z,17.00
2022-08-29T19:56:38.888Z,16.30
2022-08-29T19:59:24.822Z,16.10
2022-08-29T20:02:06.107Z,17.10
2022-08-29T20:04:39.395Z,19.20
2022-08-29T20:07:08.082Z,18.80
2022-08-29T20:09:37.487Z,18.90
2022-08-29T20:12:07.667Z,20.40
2022-08-29T20:14:37.517Z,18.90
2022-08-29T20:17:09.213Z,21.20
2022-08-29T20:19:39.540Z,19.50
2022-08-29T20:22:08.387Z,21.20
2022-08-29T20:24:37.363Z,20.00
2022-08-29T20:27:07.908Z,22.50
2022-08-29T20:32:12.142Z,20.10
2022-08-29T20:34:41.034Z,21.00
2022-08-29T20:37:10.740Z,21.40
2022-08-29T20:39:42.874Z,21.40
2022-08-29T20:42:11.597Z,19.80
2022-08-29T20:44:43.864Z,20.40
2022-08-29T20:47:16.446Z,23.70
2022-08-29T20:49:49.326Z,21.90
2022-08-29T20:52:20.123Z,22.40
2022-08-29T20:54:48.957Z,20.10
2022-08-29T20:57:18.014Z,19.20
2022-08-29T20:59:46.835Z,23.30
2022-08-29T21:02:15.976Z,22.80
2022-08-29T21:05:03.045Z,22.90
2022-08-29T21:07:31.628Z,25.30
2022-08-29T21:10:02.031Z,22.10
2022-08-29T21:12:31.971Z,24.50
2022-08-29T21:15:00.968Z,24.70
2022-08-29T21:17:29.852Z,21.40
2022-08-29T21:19:58.536Z,26.60
2022-08-29T21:22:27.539Z,25.10
2022-08-29T21:24:57.173Z,23.80
2022-08-29T21:27:26.948Z,22.30
2022-08-29T21:32:25.457Z,24.00
2022-08-29T21:34:54.242Z,26.20
2022-08-29T21:37:23.123Z,25.00
2022-08-29T21:39:51.914Z,27.90
2022-08-29T21:42:20.702Z,30.30
2022-08-29T21:44:49.388Z,32.70
2022-08-29T21:47:18.485Z,24.50
2022-08-29T21:49:48.806Z,22.70
2022-08-29T21:52:18.208Z,26.00
2022-08-29T21:54:49.252Z,22.90
2022-08-29T21:57:41.700Z,26.90
2022-08-29T22:00:11.101Z,27.10
2022-08-29T22:02:40.629Z,26.90
2022-08-29T22:05:09.802Z,27.70
2022-08-29T22:07:40.958Z,22.80
2022-08-29T22:10:18.660Z,24.30
2022-08-29T22:12:47.837Z,23.80
2022-08-29T22:15:35.476Z,26.30
2022-08-29T22:18:05.591Z,26.80
2022-08-29T22:20:34.474Z,27.40
2022-08-29T22:23:03.569Z,24.40
2022-08-29T22:25:32.764Z,24.40
2022-08-29T22:28:01.873Z,30.30
2022-08-29T22:30:32.406Z,24.40
2022-08-29T22:33:01.897Z,29.00
2022-08-29T22:35:30.582Z,27.30
2022-08-29T22:37:59.576Z,29.30
2022-08-29T22:40:29.046Z,26.80
2022-08-29T22:42:58.584Z,25.60
2022-08-29T22:45:28.267Z,28.20
2022-08-29T22:47:56.983Z,26.80
2022-08-29T22:50:26.790Z,24.10
2022-08-29T22:52:58.648Z,25.80
2022-08-29T22:57:55.721Z,24.50
2022-08-29T23:00:27.799Z,30.30
2022-08-29T23:02:56.880Z,24.70
2022-08-29T23:05:26.298Z,28.70
2022-08-29T23:07:55.584Z,27.80
2022-08-29T23:12:54.843Z,25.80
2022-08-29T23:15:24.405Z,27.00
2022-08-29T23:17:53.826Z,25.60
2022-08-29T23:20:23.516Z,27.40
2022-08-29T23:22:58.317Z,29.50
2022-08-29T23:25:27.138Z,24.60
2022-08-29T23:27:56.941Z,27.00
2022-08-29T23:30:26.050Z,24.80
2022-08-29T23:32:55.658Z,25.80
2022-08-29T23:35:25.052Z,29.40
2022-08-29T23:37:55.576Z,25.70
2022-08-29T23:40:24.639Z,28.50
2022-08-29T23:42:54.077Z,26.30
2022-08-29T23:45:24.650Z,26.60
2022-08-29T23:47:54.121Z,27.30
2022-08-29T23:50:24.060Z,32.60
2022-08-29T23:52:53.671Z,26.70
2022-08-29T23:55:23.345Z,26.30
2022-08-29T23:57:55.008Z,25.70
